BrazilFixed distance
Ultramaratona dos Perdidos 105 Km
13–14 Jul2018
Distance
105km
Finishers
5042 men8 women
Winning time
12:23:26h
Median pace
5.64km/h
Pace distribution
50 finishers · 4.93–8.47 km/h · mean 6.04
Every finisher ran the same 105 km course, so these paces are directly comparable.
Histogram of finisher pace. 50 finishers ranged from 4.93 to 8.47 kilometres per hour, with a mean of 6.04 and a median of 5.64. The busiest band is 5.0 to 5.5 kilometres per hour, with 14 finishers.
Results
Ranks 1–50 of 50
| Rank | Runner | Time | Pace | Cat. | Placing |
|---|---|---|---|---|---|
| 1 | Kailash / 4 X Team/ Ti... | 12:23:26h | 8.47 | M40 | 1st M · 1st M40 |
| 2 | Go On Outdoor Team | 12:38:28h | 8.31 | M35 | 2nd M · 1st M35 |
| 3 | Go On Outdoor Team / P... | 13:05:22h | 8.02 | M23 | 3rd M · 1st M23 |
| 4 | 13:12:29h | 7.95 | M23 | 4th M · 2nd M23 | |
| 5 | Go On Outdoor Team | 13:26:46h | 7.81 | M23 | 5th M · 3rd M23 |
| 6 | Team Carius | 13:42:08h | 7.66 | M35 | 6th M · 2nd M35 |
| 7 | Exército de UM Homem SÓ | 14:15:12h | 7.37 | M35 | 7th M · 3rd M35 |
| 8 | Performace Treinamento | 14:53:25h | 7.05 | M35 | 8th M · 4th M35 |
| 9 | Assessocor | 14:53:30h | 7.05 | M23 | 9th M · 4th M23 |
| 10 | Neemias | 14:55:36h | 7.03 | M35 | 10th M · 5th M35 |
| 11 | Jcrunner To2Team | 15:05:11h | 6.96 | M23 | 11th M · 5th M23 |
| 12 | Go On Outdoor Team | 15:12:08h | 6.91 | M23 | 12th M · 6th M23 |
| 13 | Urapazi | 15:17:53h | 6.86 | M40 | 13th M · 2nd M40 |
| 14 | Avulso | 15:42:00h | 6.69 | M23 | 14th M · 7th M23 |
| 15 | Avulso | 15:45:51h | 6.66 | M23 | 15th M · 8th M23 |
| 16 | Clinica Vera Lehm | 16:40:33h | 6.30 | M35 | 16th M · 6th M35 |
| 17 | SER Clinicas Cariru | 16:51:37h | 6.23 | M35 | 17th M · 7th M35 |
| 18 | BPM Aniceski | 16:56:58h | 6.20 | M50 | 18th M · 1st M50 |
| 19 | Avulso | 17:13:17h | 6.10 | M23 | 19th M · 9th M23 |
| 20 | Go On Outdoor Team | 17:18:20h | 6.07 | W50 | 1st F · 1st W50 |
| 21 | Toldos_Londrina | 17:18:21h | 6.07 | M50 | 20th M · 2nd M50 |
| 22 | Livress | 17:25:38h | 6.03 | M23 | 21st M · 10th M23 |
| 23 | Avulso | 17:31:12h | 5.99 | M35 | 22nd M · 8th M35 |
| 24 | Bicho do Mato / Citius | 17:58:33h | 5.84 | M40 | 23rd M · 3rd M40 |
| 25 | Upfit - Bicho Mato Team | 18:34:42h | 5.65 | M40 | 24th M · 4th M40 |
| 26 | V8 Assessoria Esportiva | 18:37:26h | 5.64 | W45 | 2nd F · 1st W45 |
| 27 | Equipiazza | 18:38:46h | 5.63 | M40 | 25th M · 5th M40 |
| 28 | Extrema Atletismo | 18:45:03h | 5.60 | W40 | 3rd F · 1st W40 |
| 29 | Bohrer Fitness Team | 18:50:03h | 5.58 | M50 | 26th M · 3rd M50 |
| 30 | Life Well | 18:50:04h | 5.58 | M40 | 27th M · 6th M40 |
| 31 | Lobo Adventure | 19:07:29h | 5.49 | M40 | 28th M · 7th M40 |
| 32 | Terciottes | 19:27:26h | 5.40 | M50 | 29th M · 4th M50 |
| 33 | Ultras do Cerrado | 19:42:50h | 5.33 | M35 | 30th M · 9th M35 |
| 34 | Avulso | 19:50:11h | 5.29 | M35 | 31st M · 10th M35 |
| 35 | Cavernarun | 19:52:06h | 5.29 | M23 | 32nd M · 11th M23 |
| 36 | Ultras do Cerrado | 19:56:44h | 5.26 | M35 | 33rd M · 11th M35 |
| 37 | Murakami Team | 20:06:28h | 5.22 | M23 | 34th M · 12th M23 |
| 38 | Voce Ativo Ass. Esp. | 20:07:21h | 5.22 | M35 | 35th M · 12th M35 |
| 39 | VEM - Assessoria Espor... | 20:14:36h | 5.19 | W35 | 4th F · 1st W35 |
| 40 | Upfit Assessoria Espor... | 20:26:21h | 5.14 | M40 | 36th M · 8th M40 |
| 41 | Avulso | 20:26:28h | 5.14 | M35 | 37th M · 13th M35 |
| 42 | SOU Ultra | 20:51:54h | 5.03 | W45 | 5th F · 2nd W45 |
| 43 | Levanta Poeira | 20:53:39h | 5.03 | M35 | 38th M · 14th M35 |
| 44 | PPR - Aae-PR | 20:56:35h | 5.01 | M35 | 39th M · 15th M35 |
| 45 | Movemente Run | 21:03:29h | 4.99 | M23 | 40th M · 13th M23 |
| 46 | Lobo Adventure | 21:04:21h | 4.98 | M23 | 41st M · 14th M23 |
| 47 | Avulso | 21:04:24h | 4.98 | W35 | 6th F · 2nd W35 |
| 48 | Camelbak Outdoor Sport | 21:10:48h | 4.96 | W50 | 7th F · 2nd W50 |
| 49 | TOP Team | 21:10:50h | 4.96 | M45 | 42nd M · 1st M45 |
| 50 | Tribo do Esporte-Salomon | 21:17:08h | 4.93 | W45 | 8th F · 3rd W45 |
- 1Kailash / 4 X Team/ Ti...1st M · 1st M40Time12:23:26hPace8.47Cat.M40
- 2Go On Outdoor Team2nd M · 1st M35Time12:38:28hPace8.31Cat.M35
- 3Go On Outdoor Team / P...3rd M · 1st M23Time13:05:22hPace8.02Cat.M23
- 44th M · 2nd M23Time13:12:29hPace7.95Cat.M23
- 5Go On Outdoor Team5th M · 3rd M23Time13:26:46hPace7.81Cat.M23
- 6Team Carius6th M · 2nd M35Time13:42:08hPace7.66Cat.M35
- 7Exército de UM Homem SÓ7th M · 3rd M35Time14:15:12hPace7.37Cat.M35
- 8Performace Treinamento8th M · 4th M35Time14:53:25hPace7.05Cat.M35
- 9Assessocor9th M · 4th M23Time14:53:30hPace7.05Cat.M23
- 10Neemias10th M · 5th M35Time14:55:36hPace7.03Cat.M35
- 11Jcrunner To2Team11th M · 5th M23Time15:05:11hPace6.96Cat.M23
- 12Go On Outdoor Team12th M · 6th M23Time15:12:08hPace6.91Cat.M23
- 13Urapazi13th M · 2nd M40Time15:17:53hPace6.86Cat.M40
- 14Avulso14th M · 7th M23Time15:42:00hPace6.69Cat.M23
- 15Avulso15th M · 8th M23Time15:45:51hPace6.66Cat.M23
- 16Clinica Vera Lehm16th M · 6th M35Time16:40:33hPace6.30Cat.M35
- 17SER Clinicas Cariru17th M · 7th M35Time16:51:37hPace6.23Cat.M35
- 18BPM Aniceski18th M · 1st M50Time16:56:58hPace6.20Cat.M50
- 19Avulso19th M · 9th M23Time17:13:17hPace6.10Cat.M23
- 20Go On Outdoor Team1st F · 1st W50Time17:18:20hPace6.07Cat.W50
- 21Toldos_Londrina20th M · 2nd M50Time17:18:21hPace6.07Cat.M50
- 22Livress21st M · 10th M23Time17:25:38hPace6.03Cat.M23
- 23Avulso22nd M · 8th M35Time17:31:12hPace5.99Cat.M35
- 24Bicho do Mato / Citius23rd M · 3rd M40Time17:58:33hPace5.84Cat.M40
- 25Upfit - Bicho Mato Team24th M · 4th M40Time18:34:42hPace5.65Cat.M40
- 26V8 Assessoria Esportiva2nd F · 1st W45Time18:37:26hPace5.64Cat.W45
- 27Equipiazza25th M · 5th M40Time18:38:46hPace5.63Cat.M40
- 28Extrema Atletismo3rd F · 1st W40Time18:45:03hPace5.60Cat.W40
- 29Bohrer Fitness Team26th M · 3rd M50Time18:50:03hPace5.58Cat.M50
- 30Life Well27th M · 6th M40Time18:50:04hPace5.58Cat.M40
- 31Lobo Adventure28th M · 7th M40Time19:07:29hPace5.49Cat.M40
- 32Terciottes29th M · 4th M50Time19:27:26hPace5.40Cat.M50
- 33Ultras do Cerrado30th M · 9th M35Time19:42:50hPace5.33Cat.M35
- 34Avulso31st M · 10th M35Time19:50:11hPace5.29Cat.M35
- 35Cavernarun32nd M · 11th M23Time19:52:06hPace5.29Cat.M23
- 36Ultras do Cerrado33rd M · 11th M35Time19:56:44hPace5.26Cat.M35
- 37Murakami Team34th M · 12th M23Time20:06:28hPace5.22Cat.M23
- 38Voce Ativo Ass. Esp.35th M · 12th M35Time20:07:21hPace5.22Cat.M35
- 39VEM - Assessoria Espor...4th F · 1st W35Time20:14:36hPace5.19Cat.W35
- 40Upfit Assessoria Espor...36th M · 8th M40Time20:26:21hPace5.14Cat.M40
- 41Avulso37th M · 13th M35Time20:26:28hPace5.14Cat.M35
- 42SOU Ultra5th F · 2nd W45Time20:51:54hPace5.03Cat.W45
- 43Levanta Poeira38th M · 14th M35Time20:53:39hPace5.03Cat.M35
- 44PPR - Aae-PR39th M · 15th M35Time20:56:35hPace5.01Cat.M35
- 45Movemente Run40th M · 13th M23Time21:03:29hPace4.99Cat.M23
- 46Lobo Adventure41st M · 14th M23Time21:04:21hPace4.98Cat.M23
- 47Avulso6th F · 2nd W35Time21:04:24hPace4.98Cat.W35
- 48Camelbak Outdoor Sport7th F · 2nd W50Time21:10:48hPace4.96Cat.W50
- 49TOP Team42nd M · 1st M45Time21:10:50hPace4.96Cat.M45
- 50Tribo do Esporte-Salomon8th F · 3rd W45Time21:17:08hPace4.93Cat.W45